createdAt,value
2023-02-23T00:02:45.288Z,10.28
2023-02-23T00:13:06.725Z,10.15
2023-02-23T00:23:28.068Z,10.06
2023-02-23T00:33:51.677Z,9.94
2023-02-23T00:44:15.317Z,9.92
2023-02-23T00:54:36.682Z,9.95
2023-02-23T01:04:58.061Z,9.84
2023-02-23T01:15:21.044Z,9.78
2023-02-23T01:25:43.359Z,9.81
2023-02-23T01:36:04.909Z,9.86
2023-02-23T01:46:26.651Z,9.84
2023-02-23T01:56:57.810Z,9.77
2023-02-23T02:07:24.597Z,9.76
2023-02-23T02:17:45.940Z,9.62
2023-02-23T02:28:10.636Z,9.57
2023-02-23T02:38:43.797Z,9.51
2023-02-23T02:49:09.238Z,9.51
2023-02-23T02:59:49.410Z,9.45
2023-02-23T03:10:29.584Z,9.44
2023-02-23T03:21:12.887Z,9.44
2023-02-23T03:31:58.654Z,9.45
2023-02-23T03:42:42.753Z,9.39
2023-02-23T03:53:25.301Z,9.36
2023-02-23T04:04:06.821Z,9.29
2023-02-23T04:14:46.885Z,9.27
2023-02-23T04:25:08.971Z,9.20
2023-02-23T04:35:31.374Z,9.21
2023-02-23T04:45:53.365Z,9.16
2023-02-23T04:56:15.320Z,9.09
2023-02-23T05:06:36.696Z,9.10
2023-02-23T05:16:58.069Z,9.12
2023-02-23T05:27:19.514Z,9.11
2023-02-23T05:37:40.944Z,9.12
2023-02-23T05:48:02.352Z,9.18
2023-02-23T05:58:24.047Z,9.15
2023-02-23T06:08:45.537Z,9.17
2023-02-23T06:19:07.268Z,9.10
2023-02-23T06:29:28.609Z,9.04
2023-02-23T06:39:50.467Z,9.00
2023-02-23T06:50:12.036Z,8.98
2023-02-23T07:00:33.558Z,8.95
2023-02-23T07:10:54.986Z,8.89
2023-02-23T07:21:16.455Z,8.93
2023-02-23T07:31:38.779Z,8.91
2023-02-23T07:42:00.188Z,8.91
2023-02-23T07:52:21.581Z,8.96
2023-02-23T08:02:42.985Z,8.99
2023-02-23T08:13:04.990Z,9.00
2023-02-23T08:23:26.754Z,9.01
2023-02-23T08:33:48.127Z,9.01
2023-02-23T08:44:09.573Z,8.98
2023-02-23T08:54:31.005Z,9.02
2023-02-23T09:04:54.038Z,8.97
2023-02-23T09:15:15.468Z,8.90
2023-02-23T09:25:43.297Z,8.94
2023-02-23T09:36:06.153Z,8.94
2023-02-23T09:46:36.113Z,8.94
2023-02-23T09:56:58.394Z,8.98
2023-02-23T10:07:22.741Z,9.05
2023-02-23T10:17:56.590Z,9.07
2023-02-23T10:28:21.532Z,9.12
2023-02-23T10:38:42.934Z,9.10
2023-02-23T10:49:04.635Z,9.05
2023-02-23T10:59:27.488Z,9.04
2023-02-23T11:09:51.294Z,9.13
2023-02-23T11:20:22.867Z,9.18
2023-02-23T11:30:44.795Z,9.14
2023-02-23T11:41:17.930Z,9.11
2023-02-23T11:51:40.618Z,9.02
2023-02-23T12:02:06.020Z,9.02
2023-02-23T12:12:29.517Z,9.00
2023-02-23T12:23:08.283Z,8.98
2023-02-23T12:33:50.023Z,9.02
2023-02-23T12:44:13.399Z,9.16
2023-02-23T12:54:35.472Z,9.23
2023-02-23T13:05:01.612Z,9.37
2023-02-23T13:15:23.746Z,9.46
2023-02-23T13:26:03.561Z,9.51
2023-02-23T13:36:26.403Z,9.57
2023-02-23T13:46:50.754Z,9.63
2023-02-23T13:57:16.783Z,9.73
2023-02-23T14:07:39.967Z,9.82
2023-02-23T14:18:02.653Z,9.85
2023-02-23T14:28:27.534Z,9.87
2023-02-23T14:38:52.071Z,9.78
2023-02-23T14:49:21.171Z,9.74
2023-02-23T14:59:42.654Z,9.69
2023-02-23T15:10:08.895Z,9.60
2023-02-23T15:30:56.964Z,8.75
2023-02-23T15:41:36.522Z,8.47
2023-02-23T15:52:03.151Z,8.15
2023-02-23T16:02:25.300Z,8.03
2023-02-23T16:12:48.918Z,7.94
2023-02-23T16:23:28.637Z,7.81
2023-02-23T16:33:58.677Z,7.82
2023-02-23T16:44:21.752Z,7.78
2023-02-23T16:54:48.435Z,7.60
2023-02-23T17:05:13.888Z,7.45
2023-02-23T17:15:36.802Z,7.48
2023-02-23T17:25:58.506Z,7.53
2023-02-23T17:36:19.981Z,7.40
2023-02-23T17:46:41.409Z,7.38
2023-02-23T17:57:03.276Z,7.35
2023-02-23T18:07:24.660Z,7.20
2023-02-23T18:17:46.178Z,7.27
2023-02-23T18:28:09.868Z,7.33
2023-02-23T18:38:31.350Z,7.33
2023-02-23T18:48:52.939Z,7.25
2023-02-23T18:59:14.827Z,7.10
2023-02-23T19:09:40.674Z,6.98
2023-02-23T19:20:02.061Z,6.87
2023-02-23T19:30:23.660Z,6.80
2023-02-23T19:40:46.691Z,6.60
2023-02-23T19:51:12.209Z,6.44
2023-02-23T20:01:34.563Z,6.31
2023-02-23T20:11:56.678Z,6.25
2023-02-23T20:22:18.184Z,6.12
2023-02-23T20:32:40.038Z,6.16
2023-02-23T20:43:01.524Z,6.10
2023-02-23T20:53:24.499Z,6.10
2023-02-23T21:03:46.612Z,6.12
2023-02-23T21:14:08.425Z,6.00
2023-02-23T21:24:33.737Z,5.80
2023-02-23T21:34:55.119Z,5.77
2023-02-23T21:45:17.152Z,5.81
2023-02-23T21:55:38.850Z,5.83
2023-02-23T22:06:01.071Z,5.70
2023-02-23T22:16:22.472Z,5.66
2023-02-23T22:26:50.433Z,5.62
2023-02-23T22:37:11.995Z,5.57
2023-02-23T22:47:34.200Z,5.62
2023-02-23T22:58:00.588Z,5.73
2023-02-23T23:08:21.946Z,5.71
2023-02-23T23:18:44.619Z,5.76
2023-02-23T23:29:07.362Z,5.76
2023-02-23T23:39:28.810Z,5.77
2023-02-23T23:49:50.166Z,5.82
